Charlevoix, MI

2:40 PM EST on December 18, 2014 (GMT -0500)
Charlevoix Municipal | Change Station
CLOSE
Current Station
Airport
Location: Charlevoix,
Elevation: 669 ft
Nearby Weather Stations

Elev 669 ft 45.30 °N, 85.27 °W | Updated 5 minutes ago

Clear
Clear
25 °F
Feels Like 17 °F
N
7
Wind Variable Wind from North

Today
High -- | Low -- °F
--% Chance of Precip.
Yesterday
High -- | Low -- °F
Precip. -- in
8:15 AM 4:59 PM
Waning Crescent, 12% visible
Pressure 30.23 in
Visibility 10.0 miles
Clouds Clear
Windchill 17 °F
Dew Point 18 °F
Humidity 75%
Rainfall 0.00 in
Snow Depth Not available.
UV 1 out of 12
Pollen .10 out of 12
Air Quality Not available.
Flu Activity Not available.
METAR KCVX 181935Z AUTO 01006KT 10SM CLR M04/M08 A3023 RMK AO2 T10411080

More Conditions Fewer Conditions

Pressure 30.23 in
Visibility 10.0 miles
Clouds Clear
Windchill 17 °F
Dew Point 18 °F
Humidity 75%
Rainfall 0.00 in
Snow Depth Not available.
UV 1 out of 12
Pollen .10 out of 12
Air Quality Not available.
Flu Activity Not available.
METAR KCVX 181935Z AUTO 01006KT 10SM CLR M04/M08 A3023 RMK AO2 T10411080

More Conditions Fewer Conditions

Nowcast | as of 2:00 PM EST on December 18, 2014

At 3 PM...mostly sunny. Temperature 28. North winds 8 mph. At 5 PM...mostly sunny. Temperature 29. North winds 8 mph. At 7 PM...mostly clear. Temperature 28. North winds 7 mph. At 9 PM...clear. Temperature 26. Northeast winds 6 mph.

×

10-Day Weather Forecast

Almanac

Astronomy

Dec. 18, 2014 Rise Set
Actual Time
Civil Twilight
Nautical Twilight
Astronomical Twilight
Moon
Length of Visible Light
Length of Day
Tomorrow will be .
, % of the Moon is Illuminated

Today's Extremes

State Highs State Lows

Community

WunderPhotos

Upload Photos

1,778,985 photos uploaded!

WunderBlogs® & News

Nearby

Air Quality

  Air Quality AQ Index Pollutant
Not available.

Snow Depth

Station Depth Elevation

Earthquake Activity

City Distance Mag. Time & Date
Minimum magnitude displayed is 2.5.

Coastal Water Temperatures

Place Temperature

Nearby Weather Stations